Skip Navigation Links Skip Navigation Links

Current Weather

La Guardia, New York

For information only: do not use for flight planning or navigation.
Latest weather
Observation time Saturday, January 25, 2020 4:01 AM EST
Local time Saturday, January 25, 2020 4:51 AM EST
Flight conditions Marginal Visual Meteorological Conditions
Winds
Wind direction East-Northeast (60°)
Wind speed 17 mph
Visibility 10 mi.
Sky condition
Ceiling 2,400 ft. overcast
Cloud layer scattered clouds 1,200 ft.
Cloud layer overcast 2,400 ft.
Temperature 39°F
Dewpoint 34°F
Altimeter 30.17 in.Hg
Derived measurements
Relative humidity 82%
Wind chill 30°F
Density altitude -1510 ft.
Remarks
Automated weather observing station with precipitation discriminator.
METAR KLGA 250901Z 06015KT 10SM SCT012 OVC024 04/01 A3017 RMK AO2 T00390011

Settings

Location code

InnerDrive.Weather 4.0.6770.0 Release CLR 4.0.30319.42000
Copyright ©2018 Inner Drive Technology. All rights reserved. Portions Copyright ©1986-2018 David Braverman.

Find weather

Site navigation


Skip Navigation Links

Place info

Page info

PayPal - The safer, easier way to pay online!

Return home.

Copyright ©2020 Inner Drive Technology. Purveyors of fine, hand-crafted computer software. Page printed 2020-01-25T09:51:09 UTC.